Muenster, Germany

11:57 AM CEST on August 28, 2015 (GMT +0200)
Munster-Osnabruck | | Change Station
CLOSE
Current Station
Airport
Location: Muenster,
Elevation: 157 ft
Nearby Weather Stations

Elev 157 ft 52.13 °N, 7.70 °E | Updated 7 minutes ago

Scattered Clouds
Scattered Clouds
63 °F
Feels Like 63 °F
N
10
Wind Variable Wind from SSW

Today
High -- | Low -- °F
--% Chance of Precip.
Yesterday
High -- | Low -- °F
Precip. -- in
6:33 AM 8:26 PM
Waxing Gibbous, 97% visible
Pressure 30.04 in
Visibility 6.2 miles
Clouds Scattered Clouds 1700 ft
Scattered Clouds 2000 ft
Dew Point 55 °F
Humidity 77%
Rainfall 0.00 in
Snow Depth Not available.
UV 4 out of 12
Pollen Not available.
Air Quality Not available.
Flu Activity Not available.
METAR EDDG 280950Z 21009KT 170V240 9999 SCT017 SCT020 17/13 Q1017 NOSIG
Pressure 30.04 in
Visibility 6.2 miles
Clouds Scattered Clouds 1700 ft
Scattered Clouds 2000 ft
Dew Point 55 °F
Humidity 77%
Rainfall 0.00 in
Snow Depth Not available.
UV 4 out of 12
Pollen Not available.
Air Quality Not available.
Flu Activity Not available.
METAR EDDG 280950Z 21009KT 170V240 9999 SCT017 SCT020 17/13 Q1017 NOSIG

10-Day Weather Forecast

×

Almanac

Astronomy

Aug. 28, 2015 Rise Set
Actual Time
Civil Twilight
Nautical Twilight
Astronomical Twilight
Moon
Length of Visible Light
Length of Day
Tomorrow will be .
, % of the Moon is Illuminated

Today's Extremes

Country Highs Country Lows

Community

WunderPhotos

Upload Photos

1,850,352 photos uploaded!

WunderBlogs® & News

Nearby

Air Quality

  Air Quality AQ Index Pollutant
Not available.

Snow Depth

Station Depth Elevation

Earthquake Activity

City Distance Mag. Time & Date
Minimum magnitude displayed is 2.5.

Coastal Water Temperatures

Place Temperature

Stations

Nearby Weather Stations

Station Location Temp. Windchill Dew Point Humidity Wind Precip. Elev Updated Type